Time;durP1;ratioP1;P1;durP2;ratioP2;P2;SDS_P1;SDS_P2;PMS_P1;PMS_P2;Temp;Humidity;BMP_temperature;BMP_pressure;BME280_temperature;BME280_humidity;BME280_pressure;Samples;Min_cycle;Max_cycle;Signal;HPM_P1;HPM_P2
2022/02/28 00:00:54;;;;;;;3.30;0.85;;;3.90;99.90;;;;;;5099793;28;20020;-75
2022/02/28 00:03:20;;;;;;;5.32;1.42;;;3.90;99.90;;;;;;5099225;28;20052;-75
2022/02/28 00:05:46;;;;;;;4.30;0.80;;;3.80;99.90;;;;;;5099737;28;20097;-75
2022/02/28 00:08:11;;;;;;;4.38;0.73;;;3.70;99.90;;;;;;5099779;28;20012;-75
2022/02/28 00:10:37;;;;;;;6.35;1.10;;;3.70;99.90;;;;;;5100009;28;20020;-76
2022/02/28 00:13:04;;;;;;;4.68;0.85;;;3.70;99.90;;;;;;5099766;28;20024;-74
2022/02/28 00:15:30;;;;;;;2.35;0.80;;;3.70;99.90;;;;;;5099573;28;20393;-74
2022/02/28 00:17:55;;;;;;;3.70;0.95;;;3.70;99.90;;;;;;5099105;28;20042;-76
2022/02/28 00:20:21;;;;;;;6.25;1.40;;;3.70;99.90;;;;;;5099403;28;20400;-75
2022/02/28 00:22:49;;;;;;;9.18;1.60;;;3.60;99.90;;;;;;5099204;28;20035;-74
2022/02/28 00:25:15;;;;;;;5.00;0.88;;;3.60;99.90;;;;;;5099485;28;20031;-75
2022/02/28 00:27:41;;;;;;;6.20;1.02;;;3.50;99.90;;;;;;5099877;28;20389;-74
2022/02/28 00:30:08;;;;;;;2.90;1.30;;;3.50;99.90;;;;;;5098305;28;20031;-74
2022/02/28 00:32:34;;;;;;;4.78;1.23;;;3.50;99.90;;;;;;5098268;28;20165;-74
2022/02/28 00:35:00;;;;;;;4.80;0.77;;;3.50;99.90;;;;;;5094882;28;20092;-74
2022/02/28 00:37:25;;;;;;;5.10;0.50;;;3.40;99.90;;;;;;5096200;28;20108;-74
2022/02/28 00:39:51;;;;;;;3.50;0.85;;;3.40;99.90;;;;;;5096162;28;20047;-75
2022/02/28 00:42:17;;;;;;;4.25;0.90;;;3.40;99.90;;;;;;5096054;28;20073;-74
2022/02/28 00:44:42;;;;;;;5.45;0.82;;;3.40;99.90;;;;;;5096107;28;20481;-74
2022/02/28 00:47:08;;;;;;;5.60;0.73;;;3.40;99.90;;;;;;5096119;28;20081;-74
2022/02/28 00:49:34;;;;;;;4.40;1.05;;;3.40;99.90;;;;;;5095596;28;20426;-75
2022/02/28 00:52:00;;;;;;;3.92;0.90;;;3.40;99.90;;;;;;5094550;28;20031;-74
2022/02/28 00:54:27;;;;;;;4.88;1.08;;;3.40;99.90;;;;;;5096026;28;20020;-74
2022/02/28 00:56:53;;;;;;;3.78;1.00;;;3.40;99.90;;;;;;5095853;28;20020;-74
2022/02/28 00:59:19;;;;;;;5.57;0.90;;;3.40;99.90;;;;;;5095874;28;20020;-74
2022/02/28 01:01:45;;;;;;;8.38;1.05;;;3.40;99.90;;;;;;5095728;28;20111;-74
2022/02/28 01:04:10;;;;;;;3.47;0.80;;;3.40;99.90;;;;;;5094342;28;20029;-74
2022/02/28 01:06:36;;;;;;;3.17;1.05;;;3.30;99.90;;;;;;5096244;28;20063;-75
2022/02/28 01:09:03;;;;;;;5.25;0.95;;;3.30;99.90;;;;;;5095749;28;20052;-74
2022/02/28 01:11:29;;;;;;;5.90;0.77;;;3.20;99.90;;;;;;5095927;28;20025;-74
2022/02/28 01:13:55;;;;;;;3.50;0.75;;;3.20;99.90;;;;;;5094382;28;20127;-75
2022/02/28 01:16:21;;;;;;;8.13;1.60;;;3.10;99.90;;;;;;5095462;28;20549;-74
2022/02/28 01:18:47;;;;;;;13.18;2.00;;;3.10;99.90;;;;;;5094601;28;20074;-74
2022/02/28 01:21:12;;;;;;;5.75;0.80;;;3.10;99.90;;;;;;5094035;28;20457;-74
2022/02/28 01:23:38;;;;;;;6.57;1.10;;;3.10;99.90;;;;;;5095596;28;20020;-75
2022/02/28 01:26:04;;;;;;;6.45;1.15;;;3.10;99.90;;;;;;5095632;28;20020;-75
2022/02/28 01:28:29;;;;;;;4.32;0.77;;;3.00;99.90;;;;;;5094105;28;20047;-75
2022/02/28 01:30:55;;;;;;;3.30;1.08;;;3.00;99.90;;;;;;5095142;28;20035;-75
2022/02/28 01:33:21;;;;;;;4.88;0.70;;;2.90;99.90;;;;;;5094832;28;20028;-75
2022/02/28 01:35:46;;;;;;;2.65;0.85;;;2.90;99.90;;;;;;5095348;28;20024;-75
2022/02/28 01:38:12;;;;;;;5.30;0.88;;;2.90;99.90;;;;;;5095106;28;20020;-75
2022/02/28 01:40:38;;;;;;;5.13;1.92;;;2.80;99.90;;;;;;5095094;28;20036;-75
2022/02/28 01:43:04;;;;;;;3.70;0.68;;;2.70;99.90;;;;;;5095038;28;20073;-75
2022/02/28 01:45:30;;;;;;;3.17;0.70;;;2.60;99.90;;;;;;5093943;28;20546;-75
2022/02/28 01:47:57;;;;;;;2.47;0.80;;;2.60;99.90;;;;;;5094742;28;20028;-75
2022/02/28 01:50:23;;;;;;;6.47;1.00;;;2.50;99.90;;;;;;5094731;28;20028;-76
2022/02/28 01:52:50;;;;;;;2.70;0.90;;;2.50;99.90;;;;;;5093552;28;20153;-76
2022/02/28 01:55:18;;;;;;;4.97;1.08;;;2.50;99.90;;;;;;5094800;28;20032;-76
2022/02/28 01:57:44;;;;;;;4.80;0.60;;;2.50;99.90;;;;;;5094983;28;20020;-76
2022/02/28 02:00:12;;;;;;;2.13;0.95;;;2.50;99.90;;;;;;5094517;28;20024;-75
2022/02/28 02:02:38;;;;;;;5.68;0.90;;;2.40;99.90;;;;;;5094691;28;20017;-76
2022/02/28 02:05:06;;;;;;;3.17;1.08;;;2.40;99.90;;;;;;5094175;28;20507;-76
2022/02/28 02:07:31;;;;;;;7.32;1.33;;;2.40;99.90;;;;;;5094464;28;20049;-76
2022/02/28 02:09:58;;;;;;;6.25;1.20;;;2.30;99.90;;;;;;5094869;28;20020;-76
2022/02/28 02:12:26;;;;;;;4.22;1.58;;;2.30;99.90;;;;;;5095112;28;20027;-76
2022/02/28 02:14:53;;;;;;;4.43;0.77;;;2.30;99.90;;;;;;5094592;28;20024;-76
2022/02/28 02:17:18;;;;;;;5.82;1.50;;;2.30;99.90;;;;;;5094271;28;20497;-75
2022/02/28 02:19:46;;;;;;;2.70;0.60;;;2.30;99.90;;;;;;5094005;28;20073;-76
2022/02/28 02:22:14;;;;;;;6.32;2.28;;;2.30;99.90;;;;;;5094374;28;20059;-76
2022/02/28 02:24:40;;;;;;;5.43;1.05;;;2.20;99.90;;;;;;5094749;28;20028;-75
2022/02/28 02:27:06;;;;;;;5.93;1.92;;;2.20;99.90;;;;;;5094164;28;20440;-75
2022/02/28 02:29:36;;;;;;;5.57;0.85;;;2.20;99.90;;;;;;5094515;28;20020;-75
2022/02/28 02:32:14;;;;;;;3.55;1.02;;;2.20;99.90;;;;;;5094316;28;20026;-75
2022/02/28 02:34:40;;;;;;;5.45;0.80;;;2.10;99.90;;;;;;5073978;28;20043;-75
2022/02/28 02:37:05;;;;;;;5.53;1.15;;;2.10;99.90;;;;;;5073795;28;20028;-75
2022/02/28 02:39:31;;;;;;;2.75;0.60;;;2.00;99.90;;;;;;5074158;28;20052;-76
2022/02/28 02:41:57;;;;;;;6.80;1.48;;;2.00;99.90;;;;;;5073804;28;20028;-75
2022/02/28 02:44:29;;;;;;;4.10;0.95;;;2.00;99.90;;;;;;5072515;28;20025;-76
2022/02/28 02:46:54;;;;;;;3.95;1.02;;;2.00;99.90;;;;;;5079697;28;20031;-75
2022/02/28 02:49:20;;;;;;;4.55;0.90;;;2.00;99.90;;;;;;5093984;28;20031;-75
2022/02/28 02:51:47;;;;;;;5.10;1.15;;;2.00;99.90;;;;;;5093533;28;20032;-75
2022/02/28 02:54:13;;;;;;;4.18;1.27;;;1.90;99.90;;;;;;5093727;28;20420;-75
2022/02/28 02:56:39;;;;;;;2.92;0.88;;;1.90;99.90;;;;;;5093534;28;20020;-75
2022/02/28 02:59:04;;;;;;;5.25;0.77;;;1.80;99.90;;;;;;5093940;28;20023;-76
2022/02/28 03:01:30;;;;;;;3.30;0.90;;;1.80;99.90;;;;;;5092312;28;20089;-76
2022/02/28 03:03:56;;;;;;;4.88;0.50;;;1.80;99.90;;;;;;5093698;28;20107;-75
2022/02/28 03:06:22;;;;;;;3.03;0.70;;;1.80;99.90;;;;;;5093974;28;20047;-75
2022/02/28 03:08:48;;;;;;;4.07;0.93;;;1.70;99.90;;;;;;5094080;28;20077;-75
2022/02/28 03:11:13;;;;;;;7.88;1.42;;;1.80;99.90;;;;;;5093859;28;20419;-75
2022/02/28 03:13:39;;;;;;;7.00;1.23;;;1.70;99.90;;;;;;5093645;28;20081;-75
2022/02/28 03:16:05;;;;;;;7.85;0.90;;;1.80;99.90;;;;;;5094059;28;20059;-73
2022/02/28 03:18:30;;;;;;;3.40;0.90;;;1.70;99.90;;;;;;5093430;28;20042;-74
2022/02/28 03:20:56;;;;;;;4.22;1.17;;;1.70;99.90;;;;;;5093351;28;20099;-73
2022/02/28 03:23:21;;;;;;;4.28;0.60;;;1.70;99.90;;;;;;5093579;28;20025;-74
2022/02/28 03:25:47;;;;;;;4.38;1.02;;;1.60;99.90;;;;;;5093831;28;20017;-73
2022/02/28 03:28:13;;;;;;;4.68;0.98;;;1.60;99.90;;;;;;5093591;28;20353;-73
2022/02/28 03:30:38;;;;;;;2.50;0.70;;;1.60;99.90;;;;;;5093718;28;20024;-74
2022/02/28 03:33:04;;;;;;;6.05;1.20;;;1.60;99.90;;;;;;5093177;28;20020;-73
2022/02/28 03:35:30;;;;;;;4.93;1.02;;;1.60;99.90;;;;;;5093164;28;20071;-73
2022/02/28 03:37:55;;;;;;;5.05;1.10;;;1.60;99.90;;;;;;5093462;28;20028;-75
2022/02/28 03:40:21;;;;;;;4.32;0.95;;;1.60;99.90;;;;;;5093272;28;20400;-72
2022/02/28 03:42:46;;;;;;;4.95;1.08;;;1.60;99.90;;;;;;5093498;28;20403;-72
2022/02/28 03:45:12;;;;;;;5.15;0.90;;;1.60;99.90;;;;;;5091860;28;20454;-73
2022/02/28 03:47:38;;;;;;;4.28;0.73;;;1.60;99.90;;;;;;5093249;28;20024;-73
2022/02/28 03:50:04;;;;;;;4.88;0.85;;;1.60;99.90;;;;;;5091942;28;20017;-73
2022/02/28 03:52:29;;;;;;;3.47;0.90;;;1.60;99.90;;;;;;5093121;28;20032;-73
2022/02/28 03:54:55;;;;;;;10.77;1.42;;;1.60;99.90;;;;;;5093717;28;20032;-73
2022/02/28 03:57:21;;;;;;;4.38;1.33;;;1.60;99.90;;;;;;5091687;28;20093;-73
2022/02/28 03:59:46;;;;;;;4.75;0.95;;;1.60;99.90;;;;;;5093246;28;20016;-72
2022/02/28 04:02:12;;;;;;;4.45;0.90;;;1.60;99.90;;;;;;5093073;28;20024;-73
2022/02/28 04:04:37;;;;;;;5.75;0.57;;;1.60;99.90;;;;;;5091593;28;20477;-73
2022/02/28 04:07:04;;;;;;;4.90;1.10;;;1.60;99.90;;;;;;5093457;28;20065;-73
2022/02/28 04:09:29;;;;;;;2.80;0.90;;;1.50;99.90;;;;;;5094606;28;20435;-74
2022/02/28 04:11:55;;;;;;;4.00;1.08;;;1.50;99.90;;;;;;5096874;28;20026;-72
2022/02/28 04:14:20;;;;;;;4.60;1.08;;;1.50;99.90;;;;;;5095405;28;20028;-72
2022/02/28 04:16:46;;;;;;;7.15;1.05;;;1.50;99.90;;;;;;5096545;28;20047;-73
2022/02/28 04:19:12;;;;;;;5.25;0.90;;;1.50;99.90;;;;;;5096765;28;20453;-73
2022/02/28 04:21:37;;;;;;;6.28;1.25;;;1.50;99.90;;;;;;5095322;28;20028;-73
2022/02/28 04:24:03;;;;;;;3.75;1.05;;;1.40;99.90;;;;;;5096663;28;20047;-73
2022/02/28 04:26:29;;;;;;;3.05;0.90;;;1.40;99.90;;;;;;5096942;28;20024;-73
2022/02/28 04:28:54;;;;;;;2.45;0.73;;;1.40;99.90;;;;;;5096698;28;20429;-73
2022/02/28 04:31:20;;;;;;;3.55;1.00;;;1.40;99.90;;;;;;5096412;28;20542;-73
2022/02/28 04:33:45;;;;;;;5.38;0.98;;;1.30;99.90;;;;;;5096312;28;20408;-73
2022/02/28 04:36:11;;;;;;;3.03;0.90;;;1.40;99.90;;;;;;5096507;28;20020;-72
2022/02/28 04:38:36;;;;;;;5.55;1.20;;;1.40;99.90;;;;;;5096778;28;20020;-72
2022/02/28 04:41:05;;;;;;;5.72;1.15;;;1.40;99.90;;;;;;5096232;28;20484;-73
2022/02/28 04:43:31;;;;;;;3.85;0.85;;;1.40;99.90;;;;;;5096273;28;20385;-73
2022/02/28 04:45:56;;;;;;;5.78;1.30;;;1.40;99.90;;;;;;5094879;28;20025;-73
2022/02/28 04:48:22;;;;;;;7.03;1.40;;;1.30;99.90;;;;;;5096349;28;20028;-73
2022/02/28 04:50:51;;;;;;;4.72;1.27;;;1.30;99.90;;;;;;5094667;28;20020;-72
2022/02/28 04:53:16;;;;;;;8.48;1.35;;;1.30;99.90;;;;;;5096552;28;20023;-72
2022/02/28 04:55:42;;;;;;;4.45;0.93;;;1.30;99.90;;;;;;5094619;28;20020;-72
2022/02/28 04:58:07;;;;;;;3.53;1.08;;;1.20;99.90;;;;;;5096456;28;20020;-72
2022/02/28 05:00:33;;;;;;;5.15;1.08;;;1.30;99.90;;;;;;5095993;28;20107;-72
2022/02/28 05:02:58;;;;;;;5.18;1.10;;;1.30;99.90;;;;;;5095976;28;20008;-72
2022/02/28 05:05:24;;;;;;;3.42;0.65;;;1.20;99.90;;;;;;5094226;28;20112;-72
2022/02/28 05:07:50;;;;;;;9.30;1.08;;;1.30;99.90;;;;;;5095779;28;20500;-72
2022/02/28 05:10:15;;;;;;;4.00;1.20;;;1.30;99.90;;;;;;5095816;28;20032;-72
2022/02/28 05:12:41;;;;;;;5.35;0.90;;;1.20;99.90;;;;;;5096315;28;20031;-72
2022/02/28 05:15:07;;;;;;;4.18;0.75;;;1.20;99.90;;;;;;5094265;28;20039;-73
2022/02/28 05:17:32;;;;;;;2.63;0.98;;;1.30;99.90;;;;;;5095402;28;20032;-72
2022/02/28 05:19:58;;;;;;;3.58;0.93;;;1.20;99.90;;;;;;5094887;28;20032;-72
2022/02/28 05:22:23;;;;;;;2.78;1.05;;;1.30;99.90;;;;;;5095811;28;20028;-72
2022/02/28 05:24:49;;;;;;;6.68;1.23;;;1.30;99.90;;;;;;5095425;28;20499;-72
2022/02/28 05:27:14;;;;;;;9.60;1.55;;;1.20;99.90;;;;;;5094364;28;20013;-72
2022/02/28 05:29:40;;;;;;;5.63;1.33;;;1.20;99.90;;;;;;5095340;28;20020;-72
2022/02/28 05:32:06;;;;;;;7.32;1.77;;;1.20;99.90;;;;;;5095294;28;20481;-72
2022/02/28 05:34:32;;;;;;;4.38;1.23;;;1.20;99.90;;;;;;5094983;28;20062;-72
2022/02/28 05:36:57;;;;;;;4.00;1.17;;;1.20;99.90;;;;;;5095393;28;20028;-72
2022/02/28 05:39:23;;;;;;;6.40;1.23;;;1.20;99.90;;;;;;5093808;28;20028;-72
2022/02/28 05:41:48;;;;;;;3.00;0.80;;;1.20;99.90;;;;;;5094999;28;20028;-73
2022/02/28 05:44:14;;;;;;;8.73;1.45;;;1.10;99.90;;;;;;5095775;28;20031;-73
2022/02/28 05:46:39;;;;;;;6.88;1.48;;;1.10;99.90;;;;;;5095129;28;20447;-72
2022/02/28 05:49:05;;;;;;;2.75;1.17;;;1.10;99.90;;;;;;5095265;28;20035;-71
2022/02/28 05:51:31;;;;;;;2.65;1.08;;;1.10;99.90;;;;;;5094996;28;20028;-73
2022/02/28 05:53:58;;;;;;;5.15;1.13;;;1.00;99.90;;;;;;5095242;28;20020;-72
2022/02/28 05:56:24;;;;;;;2.58;0.73;;;1.10;99.90;;;;;;5094884;28;20054;-71
2022/02/28 05:58:49;;;;;;;6.30;1.08;;;1.10;99.90;;;;;;5094960;28;20051;-72
2022/02/28 06:01:15;;;;;;;5.50;1.23;;;1.10;99.90;;;;;;5095334;28;20032;-72
2022/02/28 06:03:40;;;;;;;7.82;1.13;;;1.10;99.90;;;;;;5094561;28;20024;-72
2022/02/28 06:06:06;;;;;;;4.13;1.58;;;1.10;99.90;;;;;;5094639;28;20046;-72
2022/02/28 06:08:32;;;;;;;4.18;1.30;;;1.10;99.90;;;;;;5093599;28;20134;-72
2022/02/28 06:10:57;;;;;;;3.97;1.15;;;1.10;99.90;;;;;;5094785;28;20107;-72
2022/02/28 06:13:23;;;;;;;5.85;1.13;;;1.10;99.90;;;;;;5093337;28;20422;-72
2022/02/28 06:15:48;;;;;;;4.95;1.38;;;1.00;99.90;;;;;;5093217;28;20118;-72
2022/02/28 06:18:14;;;;;;;6.20;2.20;;;1.00;99.90;;;;;;5092919;28;20028;-72
2022/02/28 06:20:41;;;;;;;6.05;1.60;;;1.00;99.90;;;;;;5094467;28;20077;-74
2022/02/28 06:23:14;;;;;;;5.05;1.10;;;1.00;99.90;;;;;;5094391;28;20104;-71
2022/02/28 06:25:43;;;;;;;3.78;1.27;;;1.00;99.90;;;;;;5093161;28;20020;-72
2022/02/28 06:28:09;;;;;;;3.67;1.20;;;0.90;99.90;;;;;;5094368;28;20024;-72
2022/02/28 06:30:35;;;;;;;5.82;0.75;;;0.90;99.90;;;;;;5094349;28;20024;-71
2022/02/28 06:33:01;;;;;;;4.50;1.20;;;1.00;99.90;;;;;;5093369;28;20030;-72
2022/02/28 06:35:27;;;;;;;3.83;1.48;;;1.00;99.90;;;;;;5092931;28;20016;-72
2022/02/28 06:37:53;;;;;;;5.60;1.48;;;0.90;99.90;;;;;;5092795;28;20123;-72
2022/02/28 06:40:18;;;;;;;6.53;1.60;;;0.90;99.90;;;;;;5093937;28;20442;-73
2022/02/28 06:42:44;;;;;;;5.63;1.45;;;0.90;99.90;;;;;;5094669;28;20461;-73
2022/02/28 06:45:10;;;;;;;6.50;1.35;;;0.90;99.90;;;;;;5094086;28;20503;-72
2022/02/28 06:47:35;;;;;;;5.90;1.60;;;1.00;99.90;;;;;;5094058;28;20035;-72
2022/02/28 06:50:01;;;;;;;9.35;1.77;;;1.00;99.90;;;;;;5094482;28;20031;-72
2022/02/28 06:52:26;;;;;;;6.78;1.88;;;1.00;99.90;;;;;;5093890;28;20027;-72
2022/02/28 06:54:54;;;;;;;3.88;1.45;;;1.00;99.90;;;;;;5094024;28;20034;-73
2022/02/28 06:57:20;;;;;;;7.05;1.80;;;1.00;99.90;;;;;;5093805;28;20481;-72
2022/02/28 06:59:46;;;;;;;5.35;1.65;;;1.00;99.90;;;;;;5094270;28;20111;-72
2022/02/28 07:02:11;;;;;;;5.93;1.98;;;1.00;99.90;;;;;;5094233;28;20547;-72
2022/02/28 07:04:37;;;;;;;4.80;2.00;;;1.00;99.90;;;;;;5093867;28;20051;-72
2022/02/28 07:07:04;;;;;;;8.32;2.55;;;1.00;99.90;;;;;;5094185;28;20028;-72
2022/02/28 07:09:30;;;;;;;5.00;1.75;;;1.10;99.90;;;;;;5093585;28;20030;-73
2022/02/28 07:11:55;;;;;;;4.45;1.15;;;1.10;99.90;;;;;;5093791;28;20028;-73
2022/02/28 07:14:21;;;;;;;8.30;1.88;;;1.20;99.90;;;;;;5094219;28;20426;-73
2022/02/28 07:16:47;;;;;;;9.88;1.65;;;1.20;99.90;;;;;;5093470;28;20032;-73
2022/02/28 07:19:13;;;;;;;6.35;2.03;;;1.30;99.90;;;;;;5093648;28;20024;-73
2022/02/28 07:21:39;;;;;;;8.40;2.38;;;1.40;99.90;;;;;;5093748;28;20088;-73
2022/02/28 07:24:05;;;;;;;6.30;1.75;;;1.40;99.90;;;;;;5093165;28;20524;-73
2022/02/28 07:26:30;;;;;;;10.68;2.55;;;1.50;99.90;;;;;;5093315;28;20030;-73
2022/02/28 07:28:57;;;;;;;7.63;1.98;;;1.50;99.90;;;;;;5092014;28;20069;-73
2022/02/28 07:31:22;;;;;;;4.97;2.00;;;1.60;99.90;;;;;;5093340;28;20024;-73
2022/02/28 07:33:48;;;;;;;7.22;1.85;;;1.70;99.90;;;;;;5092048;28;20057;-73
2022/02/28 07:36:14;;;;;;;6.88;1.65;;;1.70;99.90;;;;;;5093217;28;20054;-73
2022/02/28 07:38:39;;;;;;;11.15;2.55;;;1.70;99.90;;;;;;5093856;28;20024;-73
2022/02/28 07:41:06;;;;;;;10.90;2.58;;;1.80;99.90;;;;;;5093519;28;20101;-73
2022/02/28 07:43:31;;;;;;;7.50;2.55;;;1.80;99.90;;;;;;5094236;28;20020;-73
2022/02/28 07:45:57;;;;;;;9.85;1.65;;;1.90;99.90;;;;;;5097188;28;20031;-73
2022/02/28 07:48:23;;;;;;;9.13;2.47;;;1.90;99.90;;;;;;5097330;28;20016;-73
2022/02/28 07:50:48;;;;;;;5.57;2.22;;;2.00;99.90;;;;;;5096323;28;20031;-73
2022/02/28 07:53:14;;;;;;;6.55;2.03;;;2.10;99.90;;;;;;5097431;28;20073;-73
2022/02/28 07:55:40;;;;;;;6.13;2.50;;;2.10;99.90;;;;;;5097057;28;20032;-73
2022/02/28 07:58:05;;;;;;;7.90;2.97;;;2.20;99.90;;;;;;5097022;28;20028;-73
2022/02/28 08:00:32;;;;;;;10.48;3.35;;;2.30;99.90;;;;;;5095707;28;20117;-73
2022/02/28 08:02:58;;;;;;;12.13;3.97;;;2.30;99.90;;;;;;5097049;28;20016;-72
2022/02/28 08:05:24;;;;;;;18.15;4.13;;;2.40;99.90;;;;;;5095460;28;20397;-73
2022/02/28 08:07:50;;;;;;;13.05;3.17;;;2.50;99.90;;;;;;5096998;28;20035;-73
2022/02/28 08:10:15;;;;;;;7.30;2.75;;;2.60;99.90;;;;;;5095655;28;20546;-73
2022/02/28 08:12:41;;;;;;;9.48;3.22;;;3.00;99.90;;;;;;5097173;28;20115;-73
2022/02/28 08:15:07;;;;;;;9.60;3.20;;;2.70;99.90;;;;;;5096917;28;20024;-73
2022/02/28 08:17:32;;;;;;;7.97;2.88;;;2.80;99.90;;;;;;5096650;28;20028;-72
2022/02/28 08:19:58;;;;;;;7.28;2.72;;;3.00;99.90;;;;;;5096701;28;20089;-72
2022/02/28 08:22:24;;;;;;;13.18;3.55;;;3.10;99.90;;;;;;5096330;28;20425;-72
2022/02/28 08:24:50;;;;;;;11.75;3.38;;;3.30;99.90;;;;;;5096663;28;20023;-72
2022/02/28 08:27:18;;;;;;;11.25;3.72;;;3.50;99.90;;;;;;5095149;28;20028;-72
2022/02/28 08:29:43;;;;;;;10.90;3.73;;;3.60;99.90;;;;;;5096581;28;20488;-72
2022/02/28 08:32:09;;;;;;;8.85;2.95;;;3.70;99.90;;;;;;5097124;28;20016;-72
2022/02/28 08:34:34;;;;;;;13.82;3.53;;;3.80;99.90;;;;;;5096400;28;20027;-72
2022/02/28 08:37:00;;;;;;;14.30;3.95;;;3.90;99.90;;;;;;5096332;28;20028;-72
2022/02/28 08:39:25;;;;;;;17.52;3.70;;;4.00;99.90;;;;;;5095002;28;20039;-72
2022/02/28 08:41:51;;;;;;;9.63;3.83;;;4.10;99.90;;;;;;5096711;28;20377;-72
2022/02/28 08:44:16;;;;;;;7.70;2.58;;;4.20;99.90;;;;;;5096104;28;20024;-73
2022/02/28 08:46:42;;;;;;;6.78;2.50;;;4.30;99.90;;;;;;5096139;28;20024;-72
2022/02/28 08:49:08;;;;;;;8.55;2.15;;;4.40;99.90;;;;;;5094808;28;20428;-72
2022/02/28 08:51:33;;;;;;;7.43;2.72;;;4.50;99.90;;;;;;5095902;28;20439;-73
2022/02/28 08:53:59;;;;;;;6.78;2.65;;;4.70;99.90;;;;;;5096160;28;20032;-72
2022/02/28 08:56:25;;;;;;;12.95;4.30;;;4.70;99.90;;;;;;5095183;28;20032;-74
2022/02/28 08:58:50;;;;;;;13.27;2.45;;;4.80;99.90;;;;;;5095792;28;20073;-73
2022/02/28 09:01:16;;;;;;;5.13;2.08;;;4.90;99.90;;;;;;5096038;28;20096;-73
2022/02/28 09:03:41;;;;;;;3.00;1.30;;;5.00;99.90;;;;;;5095536;28;20013;-73
2022/02/28 09:06:07;;;;;;;4.13;1.55;;;5.00;99.90;;;;;;5095610;28;20412;-73
2022/02/28 09:08:32;;;;;;;4.72;2.28;;;5.00;99.90;;;;;;5095461;28;20024;-73
2022/02/28 09:10:58;;;;;;;8.05;2.42;;;5.10;99.90;;;;;;5094211;28;20024;-73
2022/02/28 09:13:26;;;;;;;5.40;1.75;;;5.10;99.90;;;;;;5094691;28;20511;-73
2022/02/28 09:15:52;;;;;;;5.85;2.05;;;5.10;99.40;;;;;;5096484;28;20085;-73
2022/02/28 09:18:17;;;;;;;4.40;2.00;;;5.20;98.00;;;;;;5095297;28;20476;-73
2022/02/28 09:20:43;;;;;;;8.07;1.80;;;5.30;97.00;;;;;;5095225;28;20020;-72
2022/02/28 09:23:08;;;;;;;5.47;1.55;;;5.40;97.00;;;;;;5093904;28;20066;-73
2022/02/28 09:25:34;;;;;;;7.80;2.13;;;5.40;97.60;;;;;;5093941;28;20070;-73
2022/02/28 09:27:59;;;;;;;5.60;1.70;;;5.50;96.50;;;;;;5095218;28;20016;-73
2022/02/28 09:30:26;;;;;;;4.60;1.23;;;5.60;96.50;;;;;;5095073;28;20503;-73
2022/02/28 09:32:51;;;;;;;4.90;1.52;;;5.70;95.60;;;;;;5095243;28;20039;-73
2022/02/28 09:35:17;;;;;;;6.68;1.83;;;5.80;94.20;;;;;;5094052;28;20028;-72
2022/02/28 09:37:43;;;;;;;6.80;2.20;;;5.90;94.20;;;;;;5095367;28;20051;-73
2022/02/28 09:40:09;;;;;;;5.95;1.38;;;5.90;94.50;;;;;;5094116;28;20031;-73
2022/02/28 09:42:35;;;;;;;8.07;1.60;;;6.00;93.80;;;;;;5095062;28;20028;-73
2022/02/28 09:45:02;;;;;;;5.00;1.45;;;6.10;94.00;;;;;;5094303;28;20027;-72
2022/02/28 09:47:30;;;;;;;5.13;1.70;;;6.20;92.30;;;;;;5093299;28;20457;-72
2022/02/28 09:49:56;;;;;;;4.13;1.15;;;6.20;90.10;;;;;;5093432;28;20097;-72
2022/02/28 09:52:21;;;;;;;4.22;1.13;;;6.30;90.30;;;;;;5093790;28;20438;-72
2022/02/28 09:54:47;;;;;;;5.22;1.20;;;6.40;90.00;;;;;;5093787;28;20099;-73
2022/02/28 09:57:15;;;;;;;2.67;0.95;;;6.40;89.90;;;;;;5095129;28;20020;-73
2022/02/28 09:59:40;;;;;;;3.03;0.90;;;6.50;87.70;;;;;;5094896;28;20016;-72
2022/02/28 10:02:06;;;;;;;3.22;1.13;;;6.50;86.60;;;;;;5094369;28;20024;-72
2022/02/28 10:04:32;;;;;;;5.00;1.48;;;6.70;84.80;;;;;;5094821;28;20020;-72
2022/02/28 10:06:59;;;;;;;5.68;1.13;;;6.70;85.00;;;;;;5092466;28;20024;-72
2022/02/28 10:09:25;;;;;;;3.28;1.63;;;6.80;83.60;;;;;;5094837;28;20458;-72
2022/02/28 10:11:52;;;;;;;5.05;1.23;;;6.90;81.30;;;;;;5094902;28;20052;-73
2022/02/28 10:14:19;;;;;;;5.28;1.65;;;7.00;80.90;;;;;;5093393;28;20031;-72
2022/02/28 10:16:48;;;;;;;5.50;1.52;;;7.00;80.50;;;;;;5093157;28;20503;-72
2022/02/28 10:19:14;;;;;;;5.10;1.52;;;7.10;77.00;;;;;;5094770;28;20493;-73
2022/02/28 10:21:45;;;;;;;5.97;1.50;;;7.10;77.50;;;;;;5093386;28;20073;-73
2022/02/28 10:24:27;;;;;;;4.72;1.15;;;7.10;77.60;;;;;;5093283;28;20023;-72
2022/02/28 10:27:00;;;;;;;4.18;1.40;;;7.20;79.30;;;;;;5094839;28;20023;-72
2022/02/28 10:29:28;;;;;;;6.07;1.58;;;7.30;77.60;;;;;;5093340;28;20435;-73
2022/02/28 10:32:12;;;;;;;4.22;1.58;;;7.30;76.20;;;;;;5094831;28;20024;-73
2022/02/28 10:35:59;;;;;;;3.13;0.93;;;7.40;77.20;;;;;;5094128;28;20032;-73
2022/02/28 10:37:24;;;;;;;5.38;1.38;;;7.50;75.60;;;;;;5094808;28;20119;-72
2022/02/28 10:40:00;;;;;;;6.32;1.60;;;7.50;74.50;;;;;;5095330;28;20063;-74
2022/02/28 10:42:46;;;;;;;3.10;0.88;;;7.50;76.30;;;;;;5093260;28;20443;-73
2022/02/28 10:45:21;;;;;;;5.93;1.40;;;7.60;77.60;;;;;;5094231;28;20024;-74
2022/02/28 10:47:49;;;;;;;6.68;1.70;;;7.70;75.20;;;;;;5094722;28;20016;-74
2022/02/28 10:50:32;;;;;;;5.13;1.35;;;7.90;74.40;;;;;;5093690;28;20020;-74
2022/02/28 10:52:58;;;;;;;2.80;1.00;;;7.90;74.10;;;;;;5094673;28;20027;-74
2022/02/28 10:55:34;;;;;;;2.58;1.33;;;7.90;73.50;;;;;;5094064;28;20016;-73
2022/02/28 10:58:09;;;;;;;4.45;1.10;;;7.90;74.40;;;;;;5094519;28;20020;-73
2022/02/28 11:00:56;;;;;;;6.22;1.70;;;8.00;72.50;;;;;;5093740;28;20476;-73
2022/02/28 11:03:27;;;;;;;2.63;0.95;;;8.10;72.40;;;;;;5094132;28;20103;-73
2022/02/28 11:05:58;;;;;;;3.10;1.20;;;8.20;73.20;;;;;;5094040;28;20532;-73
2022/02/28 11:08:26;;;;;;;5.82;1.63;;;8.30;70.60;;;;;;5093863;28;20047;-73
2022/02/28 11:10:53;;;;;;;4.75;1.60;;;8.30;70.80;;;;;;5092519;28;20421;-74
2022/02/28 11:13:22;;;;;;;5.40;1.25;;;8.40;68.40;;;;;;5093786;28;20031;-74
2022/02/28 11:15:49;;;;;;;6.07;1.73;;;8.40;70.60;;;;;;5093640;28;20035;-74
2022/02/28 11:18:20;;;;;;;5.03;1.83;;;8.40;71.90;;;;;;5093153;28;20036;-74
2022/02/28 11:20:48;;;;;;;8.55;2.97;;;8.60;72.80;;;;;;5094194;28;20028;-74
2022/02/28 11:23:18;;;;;;;4.85;1.48;;;8.70;70.20;;;;;;5093954;28;20095;-74
2022/02/28 11:25:46;;;;;;;10.40;2.17;;;8.80;70.70;;;;;;5094215;28;20384;-75
2022/02/28 11:28:11;;;;;;;4.60;1.15;;;9.00;70.80;;;;;;5093909;28;20020;-75
2022/02/28 11:30:37;;;;;;;3.22;1.60;;;9.10;70.50;;;;;;5093643;28;20103;-74
2022/02/28 11:33:05;;;;;;;5.15;1.58;;;9.20;70.50;;;;;;5094301;28;20032;-74
2022/02/28 11:35:37;;;;;;;7.95;1.48;;;9.40;68.40;;;;;;5094409;28;20080;-76
2022/02/28 11:38:32;;;;;;;6.70;1.75;;;9.40;67.90;;;;;;5094152;28;20032;-75
2022/02/28 11:41:00;;;;;;;3.90;1.40;;;9.60;66.90;;;;;;5093535;28;20067;-75
2022/02/28 11:43:31;;;;;;;3.83;1.50;;;9.60;66.40;;;;;;5092419;28;20370;-75
2022/02/28 11:46:10;;;;;;;3.58;1.25;;;9.80;65.20;;;;;;5093819;28;20389;-76
2022/02/28 11:48:40;;;;;;;4.95;1.77;;;10.00;67.30;;;;;;5094022;28;20484;-75
2022/02/28 11:51:20;;;;;;;9.60;1.77;;;10.10;64.90;;;;;;5092363;28;20024;-75
2022/02/28 11:53:49;;;;;;;10.48;2.50;;;10.20;62.10;;;;;;5093464;28;20089;-75
2022/02/28 11:56:18;;;;;;;11.63;2.90;;;10.20;62.10;;;;;;5093501;28;20483;-75
2022/02/28 11:59:04;;;;;;;4.70;2.13;;;10.20;63.10;;;;;;5093550;28;20142;-75
2022/02/28 12:01:32;;;;;;;4.10;2.22;;;10.30;62.60;;;;;;5093342;28;20385;-75
2022/02/28 12:04:06;;;;;;;4.97;1.83;;;10.40;59.80;;;;;;5093135;28;20548;-75
2022/02/28 12:06:53;;;;;;;3.08;1.35;;;10.40;60.50;;;;;;5092876;28;20032;-75
2022/02/28 12:09:36;;;;;;;6.47;2.10;;;10.50;60.80;;;;;;5092341;28;20024;-75
2022/02/28 12:12:27;;;;;;;4.57;1.65;;;10.60;60.80;;;;;;5092173;28;20400;-74
2022/02/28 12:17:31;;;;;;;7.93;1.67;;;10.90;59.90;;;;;;5093160;28;20528;-76
2022/02/28 12:20:15;;;;;;;4.18;1.58;;;11.00;59.80;;;;;;5090658;28;20024;-75
2022/02/28 12:22:52;;;;;;;3.33;1.65;;;11.20;58.10;;;;;;5093248;28;20024;-75
2022/02/28 12:25:58;;;;;;;4.97;1.67;;;11.30;57.30;;;;;;5091968;28;20461;-75
2022/02/28 12:28:35;;;;;;;5.55;1.45;;;11.40;54.60;;;;;;5093473;28;20023;-75
2022/02/28 12:31:13;;;;;;;4.72;1.70;;;11.30;54.60;;;;;;5095580;28;20032;-75
2022/02/28 12:33:38;;;;;;;5.13;2.58;;;11.30;56.10;;;;;;5096419;28;20031;-75
2022/02/28 12:36:20;;;;;;;6.03;2.00;;;11.40;56.90;;;;;;5094757;28;20024;-75
2022/02/28 12:38:59;;;;;;;6.00;1.90;;;11.60;56.30;;;;;;5096849;28;20028;-75
2022/02/28 12:41:27;;;;;;;6.10;1.75;;;11.80;56.80;;;;;;5097230;28;20397;-75
2022/02/28 12:43:54;;;;;;;6.93;1.70;;;12.00;55.50;;;;;;5097128;28;20496;-75
2022/02/28 12:46:44;;;;;;;12.50;2.30;;;12.10;54.60;;;;;;5096386;28;20097;-75
2022/02/28 12:49:13;;;;;;;4.38;2.30;;;12.20;54.50;;;;;;5085284;28;20088;-75
2022/02/28 12:51:40;;;;;;;;;;;12.30;56.30;;;;;;5097446;28;20039;-75
2022/02/28 12:54:26;;;;;;;4.93;1.83;;;12.50;54.70;;;;;;5095891;28;19908;-75
2022/02/28 12:56:57;;;;;;;5.03;2.35;;;12.70;54.50;;;;;;5095137;28;20024;-75
2022/02/28 12:59:37;;;;;;;6.82;2.63;;;12.80;54.60;;;;;;5096206;28;20081;-76